createdAt,value
2022-10-28T00:03:42.479Z,88.06
2022-10-28T00:08:45.508Z,88.29
2022-10-28T00:13:48.882Z,88.94
2022-10-28T00:18:54.423Z,89.24
2022-10-28T00:23:57.771Z,89.31
2022-10-28T00:29:02.847Z,89.43
2022-10-28T00:34:07.786Z,90.03
2022-10-28T00:39:21.794Z,90.44
2022-10-28T00:44:43.905Z,90.10
2022-10-28T00:49:48.132Z,90.29
2022-10-28T00:54:52.390Z,90.95
2022-10-28T00:59:55.247Z,91.11
2022-10-28T01:04:57.951Z,91.22
2022-10-28T01:10:00.743Z,91.00
2022-10-28T01:15:24.913Z,90.69
2022-10-28T01:20:36.201Z,91.02
2022-10-28T01:25:48.565Z,90.61
2022-10-28T01:31:24.565Z,91.25
2022-10-28T01:36:30.179Z,90.94
2022-10-28T01:41:48.109Z,91.01
2022-10-28T01:47:14.044Z,91.05
2022-10-28T01:52:20.299Z,90.49
2022-10-28T01:57:24.526Z,90.62
2022-10-28T02:02:27.166Z,90.24
2022-10-28T02:07:30.036Z,91.07
2022-10-28T02:12:34.469Z,91.25
2022-10-28T02:18:21.215Z,90.64
2022-10-28T02:23:29.746Z,90.83
2022-10-28T02:28:48.451Z,91.15
2022-10-28T02:33:54.725Z,90.99
2022-10-28T02:38:59.689Z,91.32
2022-10-28T02:44:05.844Z,90.74
2022-10-28T02:49:13.745Z,90.58
2022-10-28T02:54:22.692Z,90.85
2022-10-28T02:59:26.184Z,90.29
2022-10-28T03:04:28.915Z,90.85
2022-10-28T03:09:31.663Z,90.00
2022-10-28T03:14:34.358Z,89.97
2022-10-28T03:19:37.095Z,90.06
2022-10-28T03:24:39.786Z,90.54
2022-10-28T03:29:45.690Z,90.35
2022-10-28T03:34:48.924Z,90.35
2022-10-28T03:39:51.645Z,89.55
2022-10-28T03:44:54.339Z,89.49
2022-10-28T03:49:57.059Z,89.11
2022-10-28T03:54:59.813Z,88.56
2022-10-28T04:00:02.742Z,88.11
2022-10-28T04:05:14.558Z,87.32
2022-10-28T04:10:17.439Z,86.92
2022-10-28T04:15:20.294Z,86.80
2022-10-28T04:20:23.730Z,86.85
2022-10-28T04:25:27.605Z,86.85
2022-10-28T04:30:30.602Z,86.19
2022-10-28T04:35:33.477Z,86.04
2022-10-28T04:40:36.403Z,84.89
2022-10-28T04:45:39.754Z,84.01
2022-10-28T04:50:42.551Z,82.88
2022-10-28T04:55:48.087Z,81.29
2022-10-28T05:00:50.785Z,81.70
2022-10-28T05:05:53.469Z,81.24
2022-10-28T05:10:56.287Z,81.48
2022-10-28T05:15:58.909Z,81.29
2022-10-28T05:21:01.667Z,81.31
2022-10-28T05:26:04.468Z,81.36
2022-10-28T05:31:07.399Z,81.29
2022-10-28T05:36:10.469Z,81.44
2022-10-28T05:41:13.170Z,81.28
2022-10-28T05:46:15.901Z,81.84
2022-10-28T05:51:18.548Z,80.86
2022-10-28T05:56:21.332Z,80.87
2022-10-28T06:01:24.185Z,80.81
2022-10-28T06:06:28.994Z,80.20
2022-10-28T06:11:30.135Z,80.21
2022-10-28T06:16:32.772Z,79.73
2022-10-28T06:21:36.896Z,79.87
2022-10-28T06:26:39.919Z,79.30
2022-10-28T06:31:42.850Z,79.34
2022-10-28T06:36:45.573Z,79.33
2022-10-28T06:41:48.228Z,79.65
2022-10-28T06:46:52.408Z,80.23
2022-10-28T06:51:55.118Z,80.49
2022-10-28T06:56:57.794Z,80.15
2022-10-28T07:02:00.566Z,79.37
2022-10-28T07:07:03.613Z,79.15
2022-10-28T07:12:08.239Z,79.21
2022-10-28T07:17:11.044Z,79.27
2022-10-28T07:22:13.896Z,79.33
2022-10-28T07:27:16.617Z,78.98
2022-10-28T07:32:19.431Z,79.31
2022-10-28T07:37:22.194Z,78.98
2022-10-28T07:42:24.939Z,78.93
2022-10-28T07:47:27.609Z,79.21
2022-10-28T07:52:30.654Z,79.12
2022-10-28T07:57:35.073Z,78.69
2022-10-28T08:02:38.038Z,78.94
2022-10-28T08:07:40.792Z,78.91
2022-10-28T08:12:43.450Z,78.91
2022-10-28T08:17:51.685Z,79.82
2022-10-28T08:22:54.923Z,79.21
2022-10-28T08:27:58.010Z,79.01
2022-10-28T08:33:00.784Z,79.10
2022-10-28T08:38:04.433Z,78.41
2022-10-28T08:43:30.341Z,78.48
2022-10-28T08:48:42.280Z,77.84
2022-10-28T08:53:48.029Z,77.23
2022-10-28T08:58:55.015Z,77.32
2022-10-28T09:03:59.503Z,77.38
2022-10-28T09:09:02.925Z,77.50
2022-10-28T09:14:22.094Z,78.17
2022-10-28T09:19:42.901Z,77.63
2022-10-28T09:24:57.363Z,77.74
2022-10-28T09:30:15.311Z,78.25
2022-10-28T09:35:21.283Z,78.16
2022-10-28T09:40:29.278Z,78.10
2022-10-28T09:45:33.404Z,77.63
2022-10-28T09:50:36.077Z,77.83
2022-10-28T09:55:38.969Z,78.15
2022-10-28T10:00:41.726Z,77.91
2022-10-28T10:05:48.412Z,77.47
2022-10-28T10:11:04.176Z,77.72
2022-10-28T10:16:24.659Z,78.07
2022-10-28T10:21:48.809Z,78.24
2022-10-28T10:26:52.769Z,78.35
2022-10-28T10:32:21.205Z,78.39
2022-10-28T10:37:24.337Z,78.41
2022-10-28T10:42:27.829Z,79.13
2022-10-28T10:47:30.576Z,79.41
2022-10-28T10:52:33.310Z,78.54
2022-10-28T10:57:36.125Z,78.59
2022-10-28T11:02:43.114Z,79.00
2022-10-28T11:07:48.622Z,79.60
2022-10-28T11:12:53.804Z,79.63
2022-10-28T11:17:58.139Z,79.23
2022-10-28T11:23:07.040Z,79.65
2022-10-28T11:28:28.207Z,79.89
2022-10-28T11:33:45.679Z,79.91
2022-10-28T11:39:11.233Z,80.28
2022-10-28T11:44:25.982Z,80.37
2022-10-28T11:50:01.908Z,80.72
2022-10-28T11:55:16.744Z,80.57
2022-10-28T12:00:35.971Z,80.88
2022-10-28T12:05:53.056Z,80.66
2022-10-28T12:11:18.913Z,80.42
2022-10-28T12:16:47.815Z,79.13
2022-10-28T12:21:50.446Z,78.62
2022-10-28T12:26:56.898Z,78.16
2022-10-28T12:32:05.292Z,77.98
2022-10-28T12:37:13.304Z,77.15
2022-10-28T12:42:21.786Z,77.24
2022-10-28T12:47:47.443Z,76.11
2022-10-28T12:52:56.357Z,77.05
2022-10-28T12:58:33.932Z,77.02
2022-10-28T13:03:37.275Z,76.80
2022-10-28T13:09:14.926Z,76.67
2022-10-28T13:14:58.719Z,76.19
2022-10-28T13:20:26.701Z,75.38
2022-10-28T13:25:47.395Z,75.20
2022-10-28T13:30:55.710Z,75.03
2022-10-28T13:36:29.408Z,74.61
2022-10-28T13:41:42.227Z,75.13
2022-10-28T13:46:59.654Z,74.88
2022-10-28T13:52:04.242Z,74.98
2022-10-28T13:57:13.087Z,74.45
2022-10-28T14:02:40.619Z,73.71
2022-10-28T14:07:58.627Z,73.95
2022-10-28T14:13:19.368Z,73.48
2022-10-28T14:24:07.977Z,73.56
2022-10-28T14:29:31.946Z,72.89
2022-10-28T14:34:38.197Z,71.74
2022-10-28T14:39:44.376Z,70.21
2022-10-28T14:45:26.106Z,70.20
2022-10-28T14:50:47.306Z,69.87
2022-10-28T14:55:56.436Z,70.43
2022-10-28T15:01:19.933Z,70.12
2022-10-28T15:06:39.518Z,70.25
2022-10-28T15:11:44.576Z,70.54
2022-10-28T15:16:50.327Z,70.76
2022-10-28T15:22:20.429Z,71.24
2022-10-28T15:27:24.006Z,70.88
2022-10-28T15:32:33.631Z,72.11
2022-10-28T15:37:36.788Z,71.58
2022-10-28T15:42:50.176Z,72.62
2022-10-28T15:47:53.773Z,72.39
2022-10-28T15:53:32.371Z,73.02
2022-10-28T15:58:42.092Z,72.67
2022-10-28T16:03:47.982Z,71.53
2022-10-28T16:09:14.082Z,71.30
2022-10-28T16:14:37.658Z,71.45
2022-10-28T16:19:43.428Z,70.99
2022-10-28T16:24:46.408Z,70.74
2022-10-28T16:29:49.664Z,70.38
2022-10-28T16:34:52.375Z,70.80
2022-10-28T16:39:55.523Z,70.28
2022-10-28T16:44:58.403Z,69.88
2022-10-28T16:50:01.149Z,71.00
2022-10-28T16:55:13.912Z,71.00
2022-10-28T17:00:17.176Z,70.70
2022-10-28T17:05:22.078Z,70.61
2022-10-28T17:10:24.902Z,70.98
2022-10-28T17:15:27.635Z,70.45
2022-10-28T17:20:30.395Z,70.62
2022-10-28T17:25:33.430Z,70.06
2022-10-28T17:30:36.168Z,69.72
2022-10-28T17:35:38.829Z,70.10
2022-10-28T17:40:41.588Z,69.95
2022-10-28T17:45:44.348Z,70.25
2022-10-28T17:50:54.534Z,69.92
2022-10-28T17:56:01.397Z,69.69
2022-10-28T18:01:09.344Z,69.58
2022-10-28T18:06:13.156Z,68.66
2022-10-28T18:11:17.231Z,68.91
2022-10-28T18:16:28.452Z,68.68
2022-10-28T18:21:31.156Z,68.71
2022-10-28T18:26:35.795Z,68.43
2022-10-28T18:31:39.168Z,68.51
2022-10-28T18:36:41.867Z,68.49
2022-10-28T18:41:44.967Z,68.35
2022-10-28T18:46:47.734Z,68.09
2022-10-28T18:51:50.531Z,68.55
2022-10-28T18:56:56.537Z,67.79
2022-10-28T19:02:00.467Z,68.21
2022-10-28T19:07:03.387Z,68.15
2022-10-28T19:12:07.798Z,67.86
2022-10-28T19:17:10.494Z,68.11
2022-10-28T19:22:13.255Z,68.68
2022-10-28T19:27:16.186Z,69.85
2022-10-28T19:32:21.127Z,69.70
2022-10-28T19:37:25.381Z,69.48
2022-10-28T19:42:28.163Z,69.19
2022-10-28T19:47:31.026Z,70.19
2022-10-28T19:52:33.728Z,70.64
2022-10-28T19:57:36.417Z,70.99
2022-10-28T20:02:39.186Z,71.24
2022-10-28T20:07:41.998Z,71.09
2022-10-28T20:12:44.713Z,72.24
2022-10-28T20:17:47.527Z,72.79
2022-10-28T20:22:50.197Z,73.01
2022-10-28T20:27:53.089Z,73.62
2022-10-28T20:32:56.092Z,73.83
2022-10-28T20:37:59.149Z,74.84
2022-10-28T20:43:02.072Z,74.40
2022-10-28T20:48:05.042Z,75.30
2022-10-28T20:53:07.771Z,74.92
2022-10-28T20:58:10.441Z,75.46
2022-10-28T21:03:13.261Z,74.69
2022-10-28T21:08:15.997Z,74.21
2022-10-28T21:13:19.392Z,74.26
2022-10-28T21:18:22.174Z,73.71
2022-10-28T21:23:25.505Z,73.59
2022-10-28T21:28:29.447Z,72.94
2022-10-28T21:33:33.874Z,72.49
2022-10-28T21:38:36.995Z,72.27
2022-10-28T21:43:42.370Z,72.01
2022-10-28T21:48:45.328Z,71.77
2022-10-28T21:53:48.259Z,71.76
2022-10-28T21:58:51.839Z,71.88
2022-10-28T22:03:55.703Z,71.38
2022-10-28T22:08:59.800Z,71.27
2022-10-28T22:14:04.383Z,71.02
2022-10-28T22:19:08.895Z,71.53
2022-10-28T22:24:11.807Z,71.39
2022-10-28T22:29:14.598Z,70.56
2022-10-28T22:34:17.482Z,70.90
2022-10-28T22:39:20.312Z,70.31
2022-10-28T22:44:23.266Z,71.11
2022-10-28T22:49:25.995Z,71.33
2022-10-28T22:54:28.655Z,71.74
2022-10-28T22:59:31.390Z,71.23
2022-10-28T23:04:34.073Z,71.62
2022-10-28T23:09:36.923Z,71.50
2022-10-28T23:14:39.598Z,71.27
2022-10-28T23:19:44.538Z,71.47
2022-10-28T23:24:47.305Z,71.08
2022-10-28T23:29:49.951Z,71.23
2022-10-28T23:34:52.644Z,71.40
2022-10-28T23:39:55.320Z,71.40
2022-10-28T23:44:58.059Z,70.92
2022-10-28T23:50:00.856Z,71.68
2022-10-28T23:55:04.978Z,71.06
